createdAt,value
2018-08-17T00:00:41.397Z,27.33
2018-08-17T00:03:10.073Z,23.60
2018-08-17T00:05:38.746Z,23.20
2018-08-17T00:08:07.491Z,22.43
2018-08-17T00:10:36.198Z,22.30
2018-08-17T00:13:04.952Z,22.50
2018-08-17T00:15:33.598Z,22.63
2018-08-17T00:18:02.286Z,20.93
2018-08-17T00:20:30.926Z,22.47
2018-08-17T00:22:59.603Z,21.60
2018-08-17T00:25:28.321Z,23.83
2018-08-17T00:27:57.058Z,23.43
2018-08-17T00:30:25.704Z,21.93
2018-08-17T00:32:54.354Z,22.70
2018-08-17T00:35:23.067Z,22.20
2018-08-17T00:37:52.057Z,23.40
2018-08-17T00:40:20.683Z,26.13
2018-08-17T00:42:49.394Z,24.60
2018-08-17T00:45:18.089Z,24.13
2018-08-17T00:47:46.728Z,22.67
2018-08-17T00:50:15.449Z,25.90
2018-08-17T00:52:44.111Z,24.17
2018-08-17T00:55:13.092Z,24.27
2018-08-17T00:57:41.739Z,25.00
2018-08-17T01:00:10.452Z,25.43
2018-08-17T01:02:39.127Z,26.20
2018-08-17T01:05:07.805Z,24.93
2018-08-17T01:07:36.618Z,24.60
2018-08-17T01:10:05.914Z,24.90
2018-08-17T01:12:34.655Z,24.57
2018-08-17T01:15:03.320Z,24.97
2018-08-17T01:17:31.980Z,24.40
2018-08-17T01:20:00.678Z,26.20
2018-08-17T01:22:29.379Z,26.67
2018-08-17T01:24:58.045Z,25.33
2018-08-17T01:27:26.721Z,25.40
2018-08-17T01:29:55.368Z,27.13
2018-08-17T01:32:23.978Z,25.50
2018-08-17T01:34:59.318Z,26.00
2018-08-17T01:37:27.965Z,24.37
2018-08-17T01:39:56.609Z,25.97
2018-08-17T01:42:25.213Z,25.00
2018-08-17T01:44:53.872Z,25.00
2018-08-17T01:47:22.541Z,24.87
2018-08-17T01:49:51.211Z,25.27
2018-08-17T01:52:19.829Z,25.00
2018-08-17T01:54:48.478Z,26.40
2018-08-17T01:57:17.072Z,26.47
2018-08-17T01:59:45.711Z,26.10
2018-08-17T02:02:14.363Z,25.30
2018-08-17T02:04:43.022Z,29.30
2018-08-17T02:07:11.653Z,29.40
2018-08-17T02:09:40.300Z,29.13
2018-08-17T02:12:09.328Z,29.80
2018-08-17T02:14:37.944Z,29.23
2018-08-17T02:17:06.620Z,28.50
2018-08-17T02:19:35.354Z,29.33
2018-08-17T02:22:04.003Z,28.30
2018-08-17T02:24:32.700Z,29.93
2018-08-17T02:27:01.302Z,30.27
2018-08-17T02:29:29.911Z,29.83
2018-08-17T02:31:58.584Z,30.67
2018-08-17T02:34:27.191Z,31.10
2018-08-17T02:36:55.866Z,30.33
2018-08-17T02:39:24.517Z,31.40
2018-08-17T02:41:53.214Z,31.83
2018-08-17T02:44:21.925Z,31.30
2018-08-17T02:46:50.639Z,30.30
2018-08-17T02:49:19.270Z,29.67
2018-08-17T02:51:48.003Z,30.27
2018-08-17T02:54:16.713Z,30.90
2018-08-17T02:56:45.326Z,31.60
2018-08-17T02:59:13.951Z,30.30
2018-08-17T03:01:42.642Z,30.27
2018-08-17T03:04:11.293Z,30.43
2018-08-17T03:06:39.917Z,29.10
2018-08-17T03:09:10.408Z,28.90
2018-08-17T03:11:39.062Z,27.17
2018-08-17T03:14:08.097Z,25.77
2018-08-17T03:16:36.866Z,24.87
2018-08-17T03:19:05.697Z,25.27
2018-08-17T03:21:34.353Z,23.80
2018-08-17T03:24:03.008Z,23.27
2018-08-17T03:26:31.610Z,22.10
2018-08-17T03:29:00.240Z,20.17
2018-08-17T03:31:28.877Z,20.70
2018-08-17T03:33:57.585Z,20.63
2018-08-17T03:36:26.246Z,19.60
2018-08-17T03:38:54.849Z,19.97
2018-08-17T03:41:23.491Z,19.70
2018-08-17T03:43:52.159Z,18.43
2018-08-17T03:46:20.935Z,19.03
2018-08-17T03:48:49.614Z,18.33
2018-08-17T03:51:18.258Z,17.33
2018-08-17T03:53:46.931Z,17.87
2018-08-17T03:56:15.576Z,18.57
2018-08-17T03:58:44.265Z,16.83
2018-08-17T04:01:12.943Z,18.00
2018-08-17T04:03:41.610Z,17.10
2018-08-17T04:06:10.278Z,17.50
2018-08-17T04:08:38.934Z,16.07
2018-08-17T04:11:07.548Z,16.30
2018-08-17T04:13:36.215Z,16.13
2018-08-17T04:16:04.809Z,16.60
2018-08-17T04:18:33.563Z,15.93
2018-08-17T04:21:02.173Z,16.30
2018-08-17T04:23:30.987Z,15.20
2018-08-17T04:25:59.642Z,15.23
2018-08-17T04:28:28.331Z,14.90
2018-08-17T04:30:56.984Z,15.10
2018-08-17T04:33:25.701Z,15.07
2018-08-17T04:35:54.380Z,14.60
2018-08-17T04:38:23.061Z,14.23
2018-08-17T04:40:51.690Z,14.27
2018-08-17T04:43:20.384Z,13.37
2018-08-17T04:45:49.662Z,13.30
2018-08-17T04:48:18.439Z,12.77
2018-08-17T04:50:47.118Z,13.73
2018-08-17T04:53:15.764Z,12.97
2018-08-17T04:55:44.454Z,12.20
2018-08-17T04:58:13.234Z,12.77
2018-08-17T05:00:41.927Z,11.90
2018-08-17T05:03:10.767Z,12.30
2018-08-17T05:05:39.437Z,11.47
2018-08-17T05:08:08.097Z,11.70
2018-08-17T05:10:36.865Z,11.27
2018-08-17T05:13:05.535Z,11.40
2018-08-17T05:15:34.369Z,11.27
2018-08-17T05:18:03.006Z,10.90
2018-08-17T05:20:31.681Z,10.60
2018-08-17T05:23:00.338Z,9.90
2018-08-17T05:25:29.066Z,9.40
2018-08-17T05:27:57.708Z,10.23
2018-08-17T05:30:26.375Z,9.77
2018-08-17T05:32:55.056Z,9.33
2018-08-17T05:35:23.695Z,9.03
2018-08-17T05:37:52.385Z,9.77
2018-08-17T05:40:27.205Z,9.17
2018-08-17T05:42:56.558Z,9.67
2018-08-17T05:45:25.202Z,9.43
2018-08-17T05:47:54.241Z,9.33
2018-08-17T05:50:22.959Z,9.93
2018-08-17T05:52:51.827Z,9.70
2018-08-17T05:55:20.725Z,10.10
2018-08-17T05:57:49.398Z,11.20
2018-08-17T06:00:18.122Z,11.53
2018-08-17T06:02:46.889Z,12.43
2018-08-17T06:05:15.618Z,14.00
2018-08-17T06:07:44.259Z,13.43
2018-08-17T06:10:12.990Z,13.93
2018-08-17T06:12:41.637Z,14.03
2018-08-17T06:15:10.417Z,14.30
2018-08-17T06:17:39.101Z,14.57
2018-08-17T06:20:08.475Z,14.93
2018-08-17T06:22:37.178Z,14.73
2018-08-17T06:25:10.583Z,15.73
2018-08-17T06:27:39.895Z,14.57
2018-08-17T06:30:11.491Z,15.37
2018-08-17T06:32:40.307Z,14.40
2018-08-17T06:35:10.433Z,14.07
2018-08-17T06:37:57.427Z,14.10
2018-08-17T06:40:26.098Z,13.87
2018-08-17T06:42:54.749Z,14.17
2018-08-17T06:45:23.419Z,12.60
2018-08-17T06:47:52.062Z,13.43
2018-08-17T06:50:20.753Z,14.00
2018-08-17T06:52:49.421Z,13.77
2018-08-17T06:55:18.075Z,13.40
2018-08-17T06:57:46.698Z,12.83
2018-08-17T07:00:16.420Z,12.50
2018-08-17T07:02:46.174Z,12.80
2018-08-17T07:05:14.984Z,11.73
2018-08-17T07:07:43.661Z,13.10
2018-08-17T07:10:13.602Z,11.50
2018-08-17T07:12:42.931Z,9.50
2018-08-17T07:15:11.914Z,10.30
2018-08-17T07:17:41.003Z,10.07
2018-08-17T07:20:11.510Z,8.50
2018-08-17T07:22:40.377Z,7.33
2018-08-17T07:25:09.458Z,8.57
2018-08-17T07:27:38.388Z,9.70
2018-08-17T07:30:08.288Z,10.10
2018-08-17T07:32:36.989Z,10.30
2018-08-17T07:35:07.233Z,9.37
2018-08-17T07:37:35.951Z,9.60
2018-08-17T07:40:04.869Z,8.97
2018-08-17T07:42:33.526Z,8.57
2018-08-17T07:45:02.168Z,7.93
2018-08-17T07:47:30.892Z,8.30
2018-08-17T07:49:59.522Z,8.03
2018-08-17T07:52:28.227Z,8.40
2018-08-17T07:54:56.887Z,7.70
2018-08-17T07:57:25.601Z,7.83
2018-08-17T07:59:54.252Z,9.03
2018-08-17T08:02:22.895Z,8.20
2018-08-17T08:04:51.509Z,8.23
2018-08-17T08:07:20.111Z,8.30
2018-08-17T08:09:48.741Z,8.77
2018-08-17T08:12:17.325Z,8.27
2018-08-17T08:14:45.985Z,7.27
2018-08-17T08:17:14.591Z,7.73
2018-08-17T08:19:43.186Z,6.80
2018-08-17T08:22:11.861Z,6.60
2018-08-17T08:24:40.524Z,6.30
2018-08-17T08:27:09.242Z,6.70
2018-08-17T08:29:44.745Z,6.70
2018-08-17T08:32:13.356Z,6.60
2018-08-17T08:34:42.014Z,6.20
2018-08-17T08:37:10.651Z,5.80
2018-08-17T08:39:39.281Z,6.17
2018-08-17T08:42:07.941Z,6.43
2018-08-17T08:44:36.630Z,6.37
2018-08-17T08:47:05.389Z,6.30
2018-08-17T08:49:34.147Z,5.53
2018-08-17T08:52:02.894Z,6.10
2018-08-17T08:54:31.597Z,5.43
2018-08-17T08:57:00.322Z,4.60
2018-08-17T08:59:29.035Z,4.10
2018-08-17T09:01:57.646Z,4.53
2018-08-17T09:04:26.426Z,4.57
2018-08-17T09:06:55.521Z,4.67
2018-08-17T09:09:25.389Z,4.40
2018-08-17T09:11:55.717Z,4.70
2018-08-17T09:14:24.452Z,4.03
2018-08-17T09:16:53.052Z,4.20
2018-08-17T09:19:21.770Z,4.50
2018-08-17T09:21:51.039Z,4.20
2018-08-17T09:24:20.194Z,4.63
2018-08-17T09:26:49.561Z,3.90
2018-08-17T09:29:18.685Z,4.50
2018-08-17T09:31:47.635Z,5.17
2018-08-17T09:34:16.683Z,4.80
2018-08-17T09:36:45.702Z,4.53
2018-08-17T09:39:15.497Z,4.43
2018-08-17T09:41:44.354Z,4.70
2018-08-17T09:44:13.698Z,5.23
2018-08-17T09:46:42.493Z,6.53
2018-08-17T09:49:11.357Z,7.20
2018-08-17T09:51:40.533Z,7.73
2018-08-17T10:08:29.371Z,7.87
2018-08-17T10:10:58.007Z,7.80
2018-08-17T10:13:26.653Z,7.87
2018-08-17T10:15:55.398Z,6.70
2018-08-17T10:18:29.709Z,5.47
2018-08-17T10:20:58.498Z,5.00
2018-08-17T10:23:27.010Z,4.43
2018-08-17T10:25:55.670Z,4.30
2018-08-17T10:28:24.306Z,5.50
2018-08-17T10:30:52.991Z,7.57
2018-08-17T10:33:21.668Z,13.00
2018-08-17T10:35:50.641Z,10.70
2018-08-17T10:38:19.345Z,6.87
2018-08-17T10:40:48.003Z,6.57
2018-08-17T10:43:16.730Z,6.83
2018-08-17T10:45:45.516Z,6.83
2018-08-17T10:48:14.189Z,7.00
2018-08-17T10:50:42.871Z,6.97
2018-08-17T10:53:11.594Z,6.33
2018-08-17T10:55:45.505Z,6.07
2018-08-17T10:58:17.145Z,6.10
2018-08-17T11:00:46.774Z,6.70
2018-08-17T11:03:15.774Z,6.17
2018-08-17T11:05:44.455Z,5.60
2018-08-17T11:08:13.170Z,6.43
2018-08-17T11:10:41.896Z,6.17
2018-08-17T11:13:10.680Z,6.93
2018-08-17T11:15:40.078Z,6.83
2018-08-17T11:18:08.774Z,7.30
2018-08-17T11:20:37.490Z,6.93
2018-08-17T11:23:06.128Z,7.87
2018-08-17T11:25:34.802Z,8.20
2018-08-17T11:28:03.497Z,8.20
2018-08-17T11:30:32.161Z,8.90
2018-08-17T11:33:00.802Z,9.17
2018-08-17T11:35:29.465Z,10.30
2018-08-17T11:37:58.141Z,9.53
2018-08-17T11:40:26.771Z,11.37
2018-08-17T11:42:55.413Z,12.90
2018-08-17T11:45:27.103Z,12.80
2018-08-17T11:47:56.726Z,10.50
2018-08-17T11:50:26.401Z,8.70
2018-08-17T11:52:59.027Z,10.07
2018-08-17T11:55:31.856Z,10.87
2018-08-17T11:58:00.583Z,10.87
2018-08-17T12:00:36.506Z,10.67
2018-08-17T12:03:06.738Z,9.83
2018-08-17T12:05:35.616Z,7.20
2018-08-17T12:08:04.475Z,7.60
2018-08-17T12:10:33.105Z,7.13
2018-08-17T12:13:07.212Z,6.00
2018-08-17T12:15:44.751Z,4.67
2018-08-17T12:18:14.613Z,4.00
2018-08-17T12:20:43.334Z,4.30
2018-08-17T12:23:12.221Z,4.20
2018-08-17T12:25:48.788Z,4.30
2018-08-17T12:28:17.925Z,4.07
2018-08-17T12:30:46.665Z,4.90
2018-08-17T12:33:15.407Z,4.10
2018-08-17T12:35:44.034Z,4.17
2018-08-17T12:38:13.268Z,4.03
2018-08-17T12:40:45.103Z,4.27
2018-08-17T12:43:15.010Z,4.30
2018-08-17T12:45:43.668Z,4.67
2018-08-17T12:48:13.136Z,4.77
2018-08-17T12:50:42.137Z,5.10
2018-08-17T12:53:10.805Z,5.20
2018-08-17T12:55:39.514Z,4.60
2018-08-17T12:58:08.301Z,4.10
2018-08-17T13:00:37.212Z,4.53
2018-08-17T13:03:06.009Z,3.77
2018-08-17T13:05:34.815Z,3.90
2018-08-17T13:08:03.520Z,4.10
2018-08-17T13:10:32.164Z,4.03
2018-08-17T13:13:05.935Z,4.10
2018-08-17T13:15:35.264Z,3.90
2018-08-17T13:18:14.586Z,3.83
2018-08-17T13:20:43.441Z,4.40
2018-08-17T13:23:12.363Z,4.27
2018-08-17T13:25:41.569Z,4.70
2018-08-17T13:28:10.326Z,5.27
2018-08-17T13:30:39.004Z,5.50
2018-08-17T13:33:07.734Z,5.60
2018-08-17T13:35:36.660Z,5.00
2018-08-17T13:38:05.537Z,5.80
2018-08-17T13:40:34.209Z,7.57
2018-08-17T13:43:02.884Z,6.97
2018-08-17T13:45:31.557Z,6.83
2018-08-17T13:48:00.335Z,7.30
2018-08-17T13:50:28.958Z,6.10
2018-08-17T13:52:57.707Z,6.50
2018-08-17T13:55:26.522Z,6.07
2018-08-17T13:57:55.108Z,6.00
2018-08-17T14:00:23.797Z,6.07
2018-08-17T14:02:52.412Z,5.50
2018-08-17T14:05:21.090Z,5.80
2018-08-17T14:07:49.755Z,6.20
2018-08-17T14:10:18.430Z,5.57
2018-08-17T14:12:47.103Z,5.90
2018-08-17T14:15:15.814Z,5.77
2018-08-17T14:17:44.621Z,5.33
2018-08-17T14:20:14.993Z,5.33
2018-08-17T14:22:43.899Z,4.60
2018-08-17T14:25:12.820Z,6.00
2018-08-17T14:27:41.777Z,5.97
2018-08-17T14:30:16.370Z,6.60
2018-08-17T14:32:45.389Z,6.73
2018-08-17T14:35:14.756Z,7.30
2018-08-17T14:37:43.427Z,7.60
2018-08-17T14:40:12.150Z,7.13
2018-08-17T14:42:41.413Z,8.70
2018-08-17T14:45:11.282Z,8.13
2018-08-17T14:47:40.052Z,7.63
2018-08-17T14:50:11.751Z,7.83
2018-08-17T14:52:40.531Z,7.63
2018-08-17T14:55:09.661Z,7.47
2018-08-17T14:57:38.393Z,7.30
2018-08-17T15:00:14.221Z,8.57
2018-08-17T15:02:43.003Z,8.50
2018-08-17T15:05:13.949Z,8.13
2018-08-17T15:07:42.687Z,7.63
2018-08-17T15:10:13.234Z,7.47
2018-08-17T15:12:42.908Z,7.83
2018-08-17T15:15:12.339Z,7.13
2018-08-17T15:17:40.997Z,6.90
2018-08-17T15:20:10.981Z,6.50
2018-08-17T15:22:39.699Z,6.73
2018-08-17T15:25:08.397Z,6.97
2018-08-17T15:27:37.120Z,6.37
2018-08-17T15:30:08.009Z,6.80
2018-08-17T15:32:36.783Z,7.43
2018-08-17T15:35:05.666Z,7.60
2018-08-17T15:37:34.487Z,6.37
2018-08-17T15:40:03.243Z,6.30
2018-08-17T15:42:32.030Z,5.63
2018-08-17T15:45:00.725Z,5.23
2018-08-17T15:47:32.630Z,5.23
2018-08-17T15:50:16.764Z,5.87
2018-08-17T15:52:45.637Z,5.63
2018-08-17T15:55:14.820Z,4.93
2018-08-17T15:57:43.796Z,5.10
2018-08-17T16:00:14.558Z,4.83
2018-08-17T16:02:43.248Z,4.47
2018-08-17T16:05:11.963Z,3.93
2018-08-17T16:07:40.663Z,4.17
2018-08-17T16:10:11.300Z,4.43
2018-08-17T16:12:40.065Z,4.77
2018-08-17T16:15:09.608Z,3.73
2018-08-17T16:17:39.147Z,3.73
2018-08-17T16:20:09.342Z,3.80
2018-08-17T16:22:38.157Z,3.60
2018-08-17T16:25:07.866Z,3.10
2018-08-17T16:27:36.627Z,3.63
2018-08-17T16:30:07.186Z,3.20
2018-08-17T16:32:35.912Z,3.17
2018-08-17T16:35:04.658Z,3.30
2018-08-17T16:37:33.382Z,3.33
2018-08-17T16:40:02.113Z,2.77
2018-08-17T16:42:35.292Z,3.30
2018-08-17T16:45:05.400Z,3.67
2018-08-17T16:47:34.028Z,3.20
2018-08-17T16:50:02.727Z,3.10
2018-08-17T16:52:31.413Z,2.50
2018-08-17T16:55:00.097Z,2.33
2018-08-17T16:57:28.782Z,2.33
2018-08-17T16:59:57.449Z,2.10
2018-08-17T17:02:26.073Z,2.00
2018-08-17T17:04:55.657Z,2.00
2018-08-17T17:07:30.061Z,2.57
2018-08-17T17:09:59.154Z,2.13
2018-08-17T17:12:27.893Z,2.03
2018-08-17T17:15:01.472Z,2.10
2018-08-17T17:17:30.234Z,2.20
2018-08-17T17:19:58.905Z,2.50
2018-08-17T17:22:27.631Z,2.20
2018-08-17T17:25:04.164Z,2.20
2018-08-17T17:27:32.800Z,2.10
2018-08-17T17:30:01.470Z,2.33
2018-08-17T17:32:30.150Z,2.30
2018-08-17T17:34:58.779Z,1.90
2018-08-17T17:37:27.463Z,2.20
2018-08-17T17:39:56.115Z,2.53
2018-08-17T17:42:24.822Z,2.20
2018-08-17T17:44:53.471Z,2.30
2018-08-17T17:47:22.180Z,2.20
2018-08-17T17:49:50.819Z,2.13
2018-08-17T17:52:19.472Z,2.17
2018-08-17T17:54:48.134Z,2.10
2018-08-17T17:57:16.853Z,2.20
2018-08-17T17:59:50.714Z,2.17
2018-08-17T18:02:19.391Z,1.87
2018-08-17T18:04:48.204Z,2.30
2018-08-17T18:07:16.877Z,1.70
2018-08-17T18:09:45.503Z,2.10
2018-08-17T18:12:14.173Z,2.47
2018-08-17T18:14:42.798Z,2.30
2018-08-17T18:17:11.697Z,2.57
2018-08-17T18:19:40.329Z,2.10
2018-08-17T18:22:14.453Z,2.50
2018-08-17T18:24:43.162Z,2.13
2018-08-17T18:27:12.847Z,2.27
2018-08-17T18:29:41.505Z,2.23
2018-08-17T18:32:10.245Z,2.10
2018-08-17T18:34:38.899Z,2.30
2018-08-17T18:37:07.615Z,2.30
2018-08-17T18:39:36.322Z,2.30
2018-08-17T18:42:05.084Z,3.07
2018-08-17T18:44:33.702Z,3.43
2018-08-17T18:47:02.356Z,3.43
2018-08-17T18:49:30.967Z,3.13
2018-08-17T18:51:59.622Z,3.07
2018-08-17T18:54:28.246Z,2.93
2018-08-17T18:56:56.905Z,2.83
2018-08-17T18:59:25.529Z,2.90
2018-08-17T19:01:54.200Z,2.80
2018-08-17T19:04:22.810Z,3.07
2018-08-17T19:06:51.500Z,3.10
2018-08-17T19:09:20.108Z,3.33
2018-08-17T19:11:48.764Z,2.77
2018-08-17T19:14:17.395Z,3.00
2018-08-17T19:16:46.192Z,3.17
2018-08-17T19:19:14.888Z,3.30
2018-08-17T19:21:43.561Z,3.40
2018-08-17T19:24:13.016Z,3.57
2018-08-17T19:26:42.165Z,3.20
2018-08-17T19:29:11.339Z,2.90
2018-08-17T19:31:47.444Z,3.30
2018-08-17T19:34:16.138Z,3.17
2018-08-17T19:36:44.871Z,3.10
2018-08-17T19:39:20.656Z,3.97
2018-08-17T19:41:49.826Z,3.83
2018-08-17T19:44:18.437Z,4.07
2018-08-17T19:46:47.155Z,3.67
2018-08-17T19:49:15.832Z,4.47
2018-08-17T19:51:44.505Z,4.50
2018-08-17T19:54:13.126Z,3.87
2018-08-17T19:56:41.845Z,3.73
2018-08-17T19:59:10.624Z,3.90
2018-08-17T20:01:39.348Z,4.67
